sensor_id;sensor_type;location;lat;lon;timestamp;pressure;altitude;pressure_sealevel;temperature;humidity
20228;BME280;12195;55.790;37.572;2023-04-05T00:01:58;99992.14;;;8.09;79.15
20228;BME280;12195;55.790;37.572;2023-04-05T00:04:31;99982.55;;;8.10;78.92
20228;BME280;12195;55.790;37.572;2023-04-05T00:07:04;99992.28;;;8.06;79.31
20228;BME280;12195;55.790;37.572;2023-04-05T00:09:38;99992.40;;;8.03;79.26
20228;BME280;12195;55.790;37.572;2023-04-05T00:12:10;99984.61;;;8.02;79.25
20228;BME280;12195;55.790;37.572;2023-04-05T00:14:42;99987.28;;;8.00;79.20
20228;BME280;12195;55.790;37.572;2023-04-05T00:17:14;99988.20;;;7.99;79.46
20228;BME280;12195;55.790;37.572;2023-04-05T00:19:46;99990.09;;;7.96;79.61
20228;BME280;12195;55.790;37.572;2023-04-05T00:22:20;99991.04;;;7.93;79.43
20228;BME280;12195;55.790;37.572;2023-04-05T00:24:54;99978.95;;;7.91;79.56
20228;BME280;12195;55.790;37.572;2023-04-05T00:27:26;99986.78;;;7.91;79.33
20228;BME280;12195;55.790;37.572;2023-04-05T00:29:58;99986.07;;;7.87;79.38
20228;BME280;12195;55.790;37.572;2023-04-05T00:32:32;99980.95;;;7.84;79.54
20228;BME280;12195;55.790;37.572;2023-04-05T00:35:04;99986.33;;;7.81;79.47
20228;BME280;12195;55.790;37.572;2023-04-05T00:37:37;99988.99;;;7.80;79.38
20228;BME280;12195;55.790;37.572;2023-04-05T00:40:09;99985.57;;;7.78;79.36
20228;BME280;12195;55.790;37.572;2023-04-05T00:42:42;99989.16;;;7.75;79.56
20228;BME280;12195;55.790;37.572;2023-04-05T00:45:14;99985.07;;;7.68;79.86
20228;BME280;12195;55.790;37.572;2023-04-05T00:47:46;99988.66;;;7.66;79.80
20228;BME280;12195;55.790;37.572;2023-04-05T00:50:18;99981.01;;;7.61;79.94
20228;BME280;12195;55.790;37.572;2023-04-05T00:52:51;99990.60;;;7.61;79.75
20228;BME280;12195;55.790;37.572;2023-04-05T00:55:24;99995.05;;;7.59;79.78
20228;BME280;12195;55.790;37.572;2023-04-05T00:57:57;99993.37;;;7.56;79.94
20228;BME280;12195;55.790;37.572;2023-04-05T01:00:29;99998.69;;;7.55;79.77
20228;BME280;12195;55.790;37.572;2023-04-05T01:03:02;99997.15;;;7.49;80.06
20228;BME280;12195;55.790;37.572;2023-04-05T01:05:50;100001.61;;;7.46;80.24
20228;BME280;12195;55.790;37.572;2023-04-05T01:11:11;99999.30;;;7.38;80.41
20228;BME280;12195;55.790;37.572;2023-04-05T01:13:47;100001.19;;;7.35;80.45
20228;BME280;12195;55.790;37.572;2023-04-05T01:16:19;100005.59;;;7.33;80.22
20228;BME280;12195;55.790;37.572;2023-04-05T01:18:52;100003.09;;;7.30;80.37
20228;BME280;12195;55.790;37.572;2023-04-05T01:21:44;100002.36;;;7.26;80.43
20228;BME280;12195;55.790;37.572;2023-04-05T01:24:54;100001.69;;;7.21;80.77
20228;BME280;12195;55.790;37.572;2023-04-05T01:27:54;100005.31;;;7.17;80.86
20228;BME280;12195;55.790;37.572;2023-04-05T01:30:15;100002.91;;;7.11;81.03
20228;BME280;12195;55.790;37.572;2023-04-05T01:35:51;100002.27;;;7.05;81.20
20228;BME280;12195;55.790;37.572;2023-04-05T01:38:25;99998.06;;;7.01;81.40
20228;BME280;12195;55.790;37.572;2023-04-05T01:40:58;100002.45;;;7.00;81.30
20228;BME280;12195;55.790;37.572;2023-04-05T01:43:30;100005.16;;;6.97;81.51
20228;BME280;12195;55.790;37.572;2023-04-05T01:46:03;99998.25;;;6.96;81.56
20228;BME280;12195;55.790;37.572;2023-04-05T01:48:36;99996.60;;;6.94;81.55
20228;BME280;12195;55.790;37.572;2023-04-05T01:51:08;99999.27;;;6.92;81.54
20228;BME280;12195;55.790;37.572;2023-04-05T01:53:40;100001.88;;;6.92;81.28
20228;BME280;12195;55.790;37.572;2023-04-05T01:56:12;100008.05;;;6.90;81.43
20228;BME280;12195;55.790;37.572;2023-04-05T01:58:44;100005.59;;;6.85;81.50
20228;BME280;12195;55.790;37.572;2023-04-05T02:01:16;100002.25;;;6.82;81.50
20228;BME280;12195;55.790;37.572;2023-04-05T02:03:49;100004.05;;;6.80;81.53
20228;BME280;12195;55.790;37.572;2023-04-05T02:06:22;100005.83;;;6.79;81.25
20228;BME280;12195;55.790;37.572;2023-04-05T02:08:54;100011.14;;;6.76;81.46
20228;BME280;12195;55.790;37.572;2023-04-05T02:11:26;100017.31;;;6.74;81.37
20228;BME280;12195;55.790;37.572;2023-04-05T02:14:00;100016.50;;;6.72;81.57
20228;BME280;12195;55.790;37.572;2023-04-05T02:16:34;100023.59;;;6.68;81.56
20228;BME280;12195;55.790;37.572;2023-04-05T02:19:06;100028.08;;;6.65;81.71
20228;BME280;12195;55.790;37.572;2023-04-05T02:21:38;100029.00;;;6.62;81.60
20228;BME280;12195;55.790;37.572;2023-04-05T02:24:10;100029.12;;;6.59;81.53
20228;BME280;12195;55.790;37.572;2023-04-05T02:26:42;100030.91;;;6.57;81.37
20228;BME280;12195;55.790;37.572;2023-04-05T02:29:14;100037.95;;;6.55;81.05
20228;BME280;12195;55.790;37.572;2023-04-05T02:31:46;100037.19;;;6.52;81.10
20228;BME280;12195;55.790;37.572;2023-04-05T02:34:19;100040.75;;;6.49;80.96
20228;BME280;12195;55.790;37.572;2023-04-05T02:36:53;100042.61;;;6.46;81.15
20228;BME280;12195;55.790;37.572;2023-04-05T02:39:26;100041.01;;;6.42;81.01
20228;BME280;12195;55.790;37.572;2023-04-05T02:41:59;100042.92;;;6.37;81.11
20228;BME280;12195;55.790;37.572;2023-04-05T02:44:31;100044.83;;;6.32;81.28
20228;BME280;12195;55.790;37.572;2023-04-05T02:47:03;100050.97;;;6.29;81.26
20228;BME280;12195;55.790;37.572;2023-04-05T02:49:37;100051.88;;;6.28;81.19
20228;BME280;12195;55.790;37.572;2023-04-05T02:52:10;100051.88;;;6.28;81.11
20228;BME280;12195;55.790;37.572;2023-04-05T02:54:44;100049.27;;;6.28;80.69
20228;BME280;12195;55.790;37.572;2023-04-05T02:57:17;100051.09;;;6.26;80.46
20228;BME280;12195;55.790;37.572;2023-04-05T02:59:51;100051.27;;;6.20;80.68
20228;BME280;12195;55.790;37.572;2023-04-05T03:02:23;100056.59;;;6.17;80.75
20228;BME280;12195;55.790;37.572;2023-04-05T03:04:56;100059.25;;;6.16;80.47
20228;BME280;12195;55.790;37.572;2023-04-05T03:07:28;100065.30;;;6.16;80.03
20228;BME280;12195;55.790;37.572;2023-04-05T03:10:00;100063.64;;;6.14;79.85
20228;BME280;12195;55.790;37.572;2023-04-05T03:12:33;100067.11;;;6.14;79.76
20228;BME280;12195;55.790;37.572;2023-04-05T03:15:06;100069.80;;;6.11;79.90
20228;BME280;12195;55.790;37.572;2023-04-05T03:17:40;100070.63;;;6.13;79.90
20228;BME280;12195;55.790;37.572;2023-04-05T03:20:14;100070.72;;;6.10;79.95
20228;BME280;12195;55.790;37.572;2023-04-05T03:22:46;100071.03;;;6.27;79.95
20228;BME280;12195;55.790;37.572;2023-04-05T03:25:18;100066.20;;;6.15;79.17
20228;BME280;12195;55.790;37.572;2023-04-05T03:27:52;100073.16;;;6.15;79.57
20228;BME280;12195;55.790;37.572;2023-04-05T03:30:27;100074.89;;;6.16;79.91
20228;BME280;12195;55.790;37.572;2023-04-05T03:33:02;100080.81;;;6.21;79.33
20228;BME280;12195;55.790;37.572;2023-04-05T03:35:38;100081.59;;;6.23;79.40
20228;BME280;12195;55.790;37.572;2023-04-05T03:38:12;100079.65;;;6.29;78.86
20228;BME280;12195;55.790;37.572;2023-04-05T03:40:52;100083.78;;;6.36;78.38
20228;BME280;12195;55.790;37.572;2023-04-05T03:43:24;100090.61;;;6.40;77.93
20228;BME280;12195;55.790;37.572;2023-04-05T03:45:57;100090.52;;;6.43;77.49
20228;BME280;12195;55.790;37.572;2023-04-05T03:48:32;100098.30;;;6.45;77.38
20228;BME280;12195;55.790;37.572;2023-04-05T03:51:04;100095.56;;;6.48;77.02
20228;BME280;12195;55.790;37.572;2023-04-05T03:53:38;100098.95;;;6.51;76.88
20228;BME280;12195;55.790;37.572;2023-04-05T03:56:11;100104.08;;;6.54;77.08
20228;BME280;12195;55.790;37.572;2023-04-05T03:58:48;100095.25;;;6.58;76.57
20228;BME280;12195;55.790;37.572;2023-04-05T04:01:23;100100.25;;;6.64;76.53
20228;BME280;12195;55.790;37.572;2023-04-05T04:03:56;100102.56;;;6.73;76.17
20228;BME280;12195;55.790;37.572;2023-04-05T04:06:30;100101.46;;;6.80;76.04
20228;BME280;12195;55.790;37.572;2023-04-05T04:09:02;100104.72;;;6.87;75.65
20228;BME280;12195;55.790;37.572;2023-04-05T04:11:36;100107.19;;;6.91;75.49
20228;BME280;12195;55.790;37.572;2023-04-05T04:14:09;100113.84;;;7.00;75.16
20228;BME280;12195;55.790;37.572;2023-04-05T04:16:58;100116.18;;;7.07;74.57
20228;BME280;12195;55.790;37.572;2023-04-05T04:19:43;100108.30;;;7.09;74.50
20228;BME280;12195;55.790;37.572;2023-04-05T04:22:20;100111.68;;;7.12;74.16
20228;BME280;12195;55.790;37.572;2023-04-05T04:24:54;100115.94;;;7.15;73.71
20228;BME280;12195;55.790;37.572;2023-04-05T04:27:42;100114.88;;;7.20;73.92
20228;BME280;12195;55.790;37.572;2023-04-05T04:30:19;100119.09;;;7.24;73.65
20228;BME280;12195;55.790;37.572;2023-04-05T04:32:54;100124.04;;;7.32;73.30
20228;BME280;12195;55.790;37.572;2023-04-05T04:35:32;100128.94;;;7.41;73.21
20228;BME280;12195;55.790;37.572;2023-04-05T04:38:20;100126.86;;;7.50;72.67
20228;BME280;12195;55.790;37.572;2023-04-05T04:41:12;100128.13;;;7.63;72.34
20228;BME280;12195;55.790;37.572;2023-04-05T04:43:46;100132.95;;;7.74;71.66
20228;BME280;12195;55.790;37.572;2023-04-05T04:46:35;100127.39;;;7.83;71.07
20228;BME280;12195;55.790;37.572;2023-04-05T04:49:11;100134.00;;;7.93;70.63
20228;BME280;12195;55.790;37.572;2023-04-05T04:51:45;100132.98;;;7.97;69.82
20228;BME280;12195;55.790;37.572;2023-04-05T04:54:17;100137.23;;;7.99;69.73
20228;BME280;12195;55.790;37.572;2023-04-05T04:56:50;100132.01;;;7.99;69.36
20228;BME280;12195;55.790;37.572;2023-04-05T04:59:23;100131.77;;;8.05;69.46
20228;BME280;12195;55.790;37.572;2023-04-05T05:01:56;100142.73;;;8.15;69.13
20228;BME280;12195;55.790;37.572;2023-04-05T05:04:29;100140.77;;;8.21;68.82
20228;BME280;12195;55.790;37.572;2023-04-05T05:07:01;100144.86;;;8.28;68.66
20228;BME280;12195;55.790;37.572;2023-04-05T05:09:35;100144.56;;;8.36;68.21
20228;BME280;12195;55.790;37.572;2023-04-05T05:12:07;100145.87;;;8.47;68.04
20228;BME280;12195;55.790;37.572;2023-04-05T05:14:39;100151.71;;;8.54;67.83
20228;BME280;12195;55.790;37.572;2023-04-05T05:17:11;100155.71;;;8.62;67.34
20228;BME280;12195;55.790;37.572;2023-04-05T05:19:45;100159.97;;;8.65;66.75
20228;BME280;12195;55.790;37.572;2023-04-05T05:22:17;100159.80;;;8.69;66.77
20228;BME280;12195;55.790;37.572;2023-04-05T05:24:50;100157.73;;;8.77;66.92
20228;BME280;12195;55.790;37.572;2023-04-05T05:27:22;100153.10;;;8.84;66.59
20228;BME280;12195;55.790;37.572;2023-04-05T05:29:55;100165.87;;;8.91;65.89
20228;BME280;12195;55.790;37.572;2023-04-05T05:32:27;100157.66;;;9.00;65.90
20228;BME280;12195;55.790;37.572;2023-04-05T05:35:00;100157.07;;;9.14;65.82
20228;BME280;12195;55.790;37.572;2023-04-05T05:37:33;100153.94;;;9.26;65.33
20228;BME280;12195;55.790;37.572;2023-04-05T05:40:07;100156.91;;;9.38;64.61
20228;BME280;12195;55.790;37.572;2023-04-05T05:42:40;100162.39;;;9.52;64.14
20228;BME280;12195;55.790;37.572;2023-04-05T05:45:12;100162.86;;;9.62;63.92
20228;BME280;12195;55.790;37.572;2023-04-05T05:47:45;100158.20;;;9.68;63.73
20228;BME280;12195;55.790;37.572;2023-04-05T05:50:17;100159.51;;;9.78;62.95
20228;BME280;12195;55.790;37.572;2023-04-05T05:52:50;100164.22;;;9.90;63.10
20228;BME280;12195;55.790;37.572;2023-04-05T05:55:22;100160.85;;;10.07;62.39
20228;BME280;12195;55.790;37.572;2023-04-05T05:57:55;100162.42;;;10.48;61.67
20228;BME280;12195;55.790;37.572;2023-04-05T06:00:27;100164.30;;;10.81;60.20
20228;BME280;12195;55.790;37.572;2023-04-05T06:02:59;100162.80;;;11.12;59.63
20228;BME280;12195;55.790;37.572;2023-04-05T06:05:32;100163.80;;;11.43;58.56
20228;BME280;12195;55.790;37.572;2023-04-05T06:08:04;100160.48;;;11.74;57.37
20228;BME280;12195;55.790;37.572;2023-04-05T06:10:37;100158.19;;;12.00;56.87
20228;BME280;12195;55.790;37.572;2023-04-05T06:13:10;100160.29;;;12.26;56.07
20228;BME280;12195;55.790;37.572;2023-04-05T06:15:42;100169.45;;;12.50;55.11
20228;BME280;12195;55.790;37.572;2023-04-05T06:18:15;100171.92;;;12.69;54.28
20228;BME280;12195;55.790;37.572;2023-04-05T06:20:47;100168.11;;;12.90;53.20
20228;BME280;12195;55.790;37.572;2023-04-05T06:23:20;100166.06;;;12.95;53.66
20228;BME280;12195;55.790;37.572;2023-04-05T06:25:52;100166.06;;;12.95;53.64
20228;BME280;12195;55.790;37.572;2023-04-05T06:28:26;100168.02;;;12.76;53.60
20228;BME280;12195;55.790;37.572;2023-04-05T06:30:59;100169.56;;;12.64;53.84
20228;BME280;12195;55.790;37.572;2023-04-05T06:33:31;100175.42;;;12.54;54.03
20228;BME280;12195;55.790;37.572;2023-04-05T06:36:04;100180.53;;;12.57;54.35
20228;BME280;12195;55.790;37.572;2023-04-05T06:38:37;100173.45;;;12.73;54.18
20228;BME280;12195;55.790;37.572;2023-04-05T06:41:10;100179.14;;;12.81;53.14
20228;BME280;12195;55.790;37.572;2023-04-05T06:43:42;100186.28;;;12.94;53.39
20228;BME280;12195;55.790;37.572;2023-04-05T06:46:15;100175.94;;;13.07;52.57
20228;BME280;12195;55.790;37.572;2023-04-05T06:48:47;100180.31;;;13.22;52.37
20228;BME280;12195;55.790;37.572;2023-04-05T06:51:21;100174.53;;;13.31;52.04
20228;BME280;12195;55.790;37.572;2023-04-05T06:53:55;100176.96;;;13.34;52.24
20228;BME280;12195;55.790;37.572;2023-04-05T06:56:28;100178.77;;;13.33;51.65
20228;BME280;12195;55.790;37.572;2023-04-05T06:59:00;100183.02;;;13.36;52.42
20228;BME280;12195;55.790;37.572;2023-04-05T07:01:33;100182.84;;;13.39;51.91
20228;BME280;12195;55.790;37.572;2023-04-05T07:04:05;100190.13;;;13.49;51.55
20228;BME280;12195;55.790;37.572;2023-04-05T07:06:38;100183.05;;;13.50;51.76
20228;BME280;12195;55.790;37.572;2023-04-05T07:09:11;100183.91;;;13.50;51.29
20228;BME280;12195;55.790;37.572;2023-04-05T07:11:43;100185.77;;;13.48;51.52
20228;BME280;12195;55.790;37.572;2023-04-05T07:14:16;100184.36;;;13.43;51.29
20228;BME280;12195;55.790;37.572;2023-04-05T07:16:48;100183.84;;;13.36;51.44
20228;BME280;12195;55.790;37.572;2023-04-05T07:19:22;100177.88;;;13.19;51.87
20228;BME280;12195;55.790;37.572;2023-04-05T07:21:55;100182.81;;;13.09;52.59
20228;BME280;12195;55.790;37.572;2023-04-05T07:24:27;100185.78;;;13.03;52.98
20228;BME280;12195;55.790;37.572;2023-04-05T07:26:59;100189.45;;;13.01;52.93
20228;BME280;12195;55.790;37.572;2023-04-05T07:29:32;100189.45;;;13.01;52.74
20228;BME280;12195;55.790;37.572;2023-04-05T07:32:07;100184.02;;;13.04;52.95
20228;BME280;12195;55.790;37.572;2023-04-05T07:34:39;100193.94;;;13.14;52.97
20228;BME280;12195;55.790;37.572;2023-04-05T07:37:11;100192.75;;;13.20;52.69
20228;BME280;12195;55.790;37.572;2023-04-05T07:39:44;100194.44;;;13.21;52.01
20228;BME280;12195;55.790;37.572;2023-04-05T07:42:17;100198.69;;;13.23;52.57
20228;BME280;12195;55.790;37.572;2023-04-05T07:44:50;100190.69;;;13.25;52.30
20228;BME280;12195;55.790;37.572;2023-04-05T07:47:22;100194.68;;;13.32;52.12
20228;BME280;12195;55.790;37.572;2023-04-05T07:49:55;100201.31;;;13.39;51.82
20228;BME280;12195;55.790;37.572;2023-04-05T07:52:28;100205.95;;;13.49;52.08
20228;BME280;12195;55.790;37.572;2023-04-05T07:55:00;100202.86;;;13.57;51.66
20228;BME280;12195;55.790;37.572;2023-04-05T07:57:33;100205.98;;;13.63;51.62
20228;BME280;12195;55.790;37.572;2023-04-05T08:00:08;100196.29;;;13.64;51.12
20228;BME280;12195;55.790;37.572;2023-04-05T08:02:43;100195.52;;;13.62;51.58
20228;BME280;12195;55.790;37.572;2023-04-05T08:05:16;100198.16;;;13.62;51.43
20228;BME280;12195;55.790;37.572;2023-04-05T08:07:48;100194.77;;;13.60;51.52
20228;BME280;12195;55.790;37.572;2023-04-05T08:10:20;100197.67;;;13.55;51.78
20228;BME280;12195;55.790;37.572;2023-04-05T08:12:53;100196.92;;;13.53;51.82
20228;BME280;12195;55.790;37.572;2023-04-05T08:15:25;100198.70;;;13.53;51.63
20228;BME280;12195;55.790;37.572;2023-04-05T08:17:58;100206.78;;;13.50;51.68
20228;BME280;12195;55.790;37.572;2023-04-05T08:20:30;100199.16;;;13.45;51.73
20228;BME280;12195;55.790;37.572;2023-04-05T08:23:05;100203.74;;;13.42;52.06
20228;BME280;12195;55.790;37.572;2023-04-05T08:25:38;100204.14;;;13.50;52.33
20228;BME280;12195;55.790;37.572;2023-04-05T08:28:12;100199.33;;;13.42;52.36
20228;BME280;12195;55.790;37.572;2023-04-05T08:30:44;100208.59;;;13.49;52.46
20228;BME280;12195;55.790;37.572;2023-04-05T08:33:17;100203.89;;;13.54;52.19
20228;BME280;12195;55.790;37.572;2023-04-05T08:35:49;100217.41;;;13.64;51.96
20228;BME280;12195;55.790;37.572;2023-04-05T08:38:23;100212.69;;;13.69;52.06
20228;BME280;12195;55.790;37.572;2023-04-05T08:40:57;100210.63;;;13.74;51.90
20228;BME280;12195;55.790;37.572;2023-04-05T08:43:55;100218.08;;;13.81;51.54
20228;BME280;12195;55.790;37.572;2023-04-05T08:46:33;100214.43;;;13.84;51.77
20228;BME280;12195;55.790;37.572;2023-04-05T08:49:06;100216.52;;;13.93;51.42
20228;BME280;12195;55.790;37.572;2023-04-05T08:51:39;100206.73;;;14.09;51.17
20228;BME280;12195;55.790;37.572;2023-04-05T08:54:11;100206.58;;;14.26;50.78
20228;BME280;12195;55.790;37.572;2023-04-05T08:56:46;100208.55;;;14.36;50.29
20228;BME280;12195;55.790;37.572;2023-04-05T08:59:22;100207.88;;;14.47;49.93
20228;BME280;12195;55.790;37.572;2023-04-05T09:01:55;100204.10;;;14.51;49.61
20228;BME280;12195;55.790;37.572;2023-04-05T09:04:33;100198.62;;;14.54;49.88
20228;BME280;12195;55.790;37.572;2023-04-05T09:07:06;100202.56;;;14.61;50.22
20228;BME280;12195;55.790;37.572;2023-04-05T09:09:41;100202.84;;;14.70;49.73
20228;BME280;12195;55.790;37.572;2023-04-05T09:12:15;100200.36;;;14.81;49.50
20228;BME280;12195;55.790;37.572;2023-04-05T09:14:48;100203.82;;;14.96;49.18
20228;BME280;12195;55.790;37.572;2023-04-05T09:17:22;100209.14;;;15.08;49.01
20228;BME280;12195;55.790;37.572;2023-04-05T09:19:55;100206.56;;;15.21;48.61
20228;BME280;12195;55.790;37.572;2023-04-05T09:22:27;100208.15;;;15.37;48.44
20228;BME280;12195;55.790;37.572;2023-04-05T09:25:00;100200.98;;;15.52;48.18
20228;BME280;12195;55.790;37.572;2023-04-05T09:27:32;100208.84;;;15.66;47.50
20228;BME280;12195;55.790;37.572;2023-04-05T09:30:07;100202.72;;;15.78;47.75
20228;BME280;12195;55.790;37.572;2023-04-05T09:32:45;100203.67;;;15.89;46.71
20228;BME280;12195;55.790;37.572;2023-04-05T09:35:26;100205.59;;;15.88;51.37
20228;BME280;12195;55.790;37.572;2023-04-05T09:38:10;100207.38;;;15.87;47.91
20228;BME280;12195;55.790;37.572;2023-04-05T09:40:45;100192.13;;;16.03;47.01
20228;BME280;12195;55.790;37.572;2023-04-05T09:43:41;100205.26;;;16.17;46.63
20228;BME280;12195;55.790;37.572;2023-04-05T09:46:31;100207.95;;;16.42;46.29
20228;BME280;12195;55.790;37.572;2023-04-05T09:49:04;100201.44;;;16.59;45.33
20228;BME280;12195;55.790;37.572;2023-04-05T09:51:38;100203.32;;;16.69;45.34
20228;BME280;12195;55.790;37.572;2023-04-05T09:54:12;100201.05;;;16.88;44.89
20228;BME280;12195;55.790;37.572;2023-04-05T09:56:52;100195.06;;;16.97;44.81
20228;BME280;12195;55.790;37.572;2023-04-05T09:59:19;100198.52;;;17.10;44.63
20228;BME280;12195;55.790;37.572;2023-04-05T10:01:52;100195.92;;;17.21;44.07
20228;BME280;12195;55.790;37.572;2023-04-05T10:04:24;100194.55;;;17.39;43.84
20228;BME280;12195;55.790;37.572;2023-04-05T10:06:56;100192.31;;;17.46;43.46
20228;BME280;12195;55.790;37.572;2023-04-05T10:09:29;100189.81;;;17.55;43.17
20228;BME280;12195;55.790;37.572;2023-04-05T10:12:05;100185.86;;;17.61;43.05
20228;BME280;12195;55.790;37.572;2023-04-05T10:14:38;100193.98;;;17.70;43.38
20228;BME280;12195;55.790;37.572;2023-04-05T10:20:01;100190.39;;;17.93;42.53
20228;BME280;12195;55.790;37.572;2023-04-05T10:28:14;100187.89;;;18.14;41.72
20228;BME280;12195;55.790;37.572;2023-04-05T10:30:46;100182.47;;;18.15;41.75
20228;BME280;12195;55.790;37.572;2023-04-05T10:33:23;100191.53;;;18.13;41.62
20228;BME280;12195;55.790;37.572;2023-04-05T10:39:00;100186.58;;;18.19;41.62
20228;BME280;12195;55.790;37.572;2023-04-05T10:41:39;100186.58;;;18.19;41.31
20228;BME280;12195;55.790;37.572;2023-04-05T10:44:10;100189.95;;;18.21;41.43
20228;BME280;12195;55.790;37.572;2023-04-05T10:46:44;100184.38;;;18.13;41.72
20228;BME280;12195;55.790;37.572;2023-04-05T10:49:41;100186.33;;;18.11;41.58
20228;BME280;12195;55.790;37.572;2023-04-05T10:52:13;100186.55;;;18.08;41.91
20228;BME280;12195;55.790;37.572;2023-04-05T10:54:48;100186.90;;;18.04;41.98
20228;BME280;12195;55.790;37.572;2023-04-05T10:57:22;100182.30;;;17.95;41.78
20228;BME280;12195;55.790;37.572;2023-04-05T10:59:55;100190.13;;;17.85;42.26
20228;BME280;12195;55.790;37.572;2023-04-05T11:02:30;100189.91;;;17.88;42.30
20228;BME280;12195;55.790;37.572;2023-04-05T11:05:04;100185.70;;;17.97;41.87
20228;BME280;12195;55.790;37.572;2023-04-05T11:07:43;100185.70;;;17.97;41.68
20228;BME280;12195;55.790;37.572;2023-04-05T11:10:16;100191.98;;;18.07;41.60
20228;BME280;12195;55.790;37.572;2023-04-05T11:15:28;100182.92;;;18.09;41.46
20228;BME280;12195;55.790;37.572;2023-04-05T11:20:43;100174.35;;;18.06;41.18
20228;BME280;12195;55.790;37.572;2023-04-05T11:23:18;100182.22;;;18.07;41.60
20228;BME280;12195;55.790;37.572;2023-04-05T11:25:56;100179.33;;;18.10;41.50
20228;BME280;12195;55.790;37.572;2023-04-05T11:28:37;100179.44;;;18.09;41.31
20228;BME280;12195;55.790;37.572;2023-04-05T11:31:15;100179.78;;;18.04;41.32
20228;BME280;12195;55.790;37.572;2023-04-05T11:33:54;100174.58;;;18.03;41.70
20228;BME280;12195;55.790;37.572;2023-04-05T11:39:21;100177.47;;;18.00;41.39
20228;BME280;12195;55.790;37.572;2023-04-05T11:41:59;100180.62;;;17.94;41.45
20228;BME280;12195;55.790;37.572;2023-04-05T11:44:48;100168.64;;;17.88;41.97
20228;BME280;12195;55.790;37.572;2023-04-05T11:47:22;100168.41;;;17.91;41.66
20228;BME280;12195;55.790;37.572;2023-04-05T11:49:54;100164.19;;;17.89;41.55
20228;BME280;12195;55.790;37.572;2023-04-05T11:52:27;100165.39;;;17.85;41.59
20228;BME280;12195;55.790;37.572;2023-04-05T11:55:00;100162.50;;;17.88;41.60
20228;BME280;12195;55.790;37.572;2023-04-05T11:57:34;100166.47;;;17.93;41.40
20228;BME280;12195;55.790;37.572;2023-04-05T12:00:08;100156.84;;;18.03;41.25
20228;BME280;12195;55.790;37.572;2023-04-05T12:02:42;100156.34;;;18.09;40.67
20228;BME280;12195;55.790;37.572;2023-04-05T12:05:14;100158.28;;;18.18;40.86
20228;BME280;12195;55.790;37.572;2023-04-05T12:07:51;100156.13;;;18.23;40.04
20228;BME280;12195;55.790;37.572;2023-04-05T12:10:27;100149.09;;;18.22;40.45
20228;BME280;12195;55.790;37.572;2023-04-05T12:13:01;100150.08;;;18.32;40.62
20228;BME280;12195;55.790;37.572;2023-04-05T12:15:38;100144.91;;;18.42;40.02
20228;BME280;12195;55.790;37.572;2023-04-05T12:18:14;100153.13;;;18.50;39.79
20228;BME280;12195;55.790;37.572;2023-04-05T12:20:46;100147.18;;;18.57;40.04
20228;BME280;12195;55.790;37.572;2023-04-05T12:23:20;100148.11;;;18.78;39.66
20228;BME280;12195;55.790;37.572;2023-04-05T12:25:54;100144.55;;;19.00;39.04
20228;BME280;12195;55.790;37.572;2023-04-05T12:31:45;100139.89;;;20.85;35.42
20228;BME280;12195;55.790;37.572;2023-04-05T12:34:13;100129.89;;;22.38;32.95
20228;BME280;12195;55.790;37.572;2023-04-05T12:36:46;100135.63;;;24.10;30.46
20228;BME280;12195;55.790;37.572;2023-04-05T12:39:20;100134.44;;;25.53;28.34
20228;BME280;12195;55.790;37.572;2023-04-05T12:41:58;100137.60;;;26.67;26.58
20228;BME280;12195;55.790;37.572;2023-04-05T12:44:31;100126.88;;;27.57;25.61
20228;BME280;12195;55.790;37.572;2023-04-05T12:47:05;100138.84;;;28.00;24.60
20228;BME280;12195;55.790;37.572;2023-04-05T12:49:39;100131.32;;;28.10;24.55
20228;BME280;12195;55.790;37.572;2023-04-05T12:52:11;100120.03;;;28.79;23.94
20228;BME280;12195;55.790;37.572;2023-04-05T12:54:58;100128.28;;;29.49;22.93
20228;BME280;12195;55.790;37.572;2023-04-05T12:57:33;100127.67;;;30.23;22.01
20228;BME280;12195;55.790;37.572;2023-04-05T13:00:06;100137.93;;;30.68;21.27
20228;BME280;12195;55.790;37.572;2023-04-05T13:02:40;100133.09;;;31.04;20.83
20228;BME280;12195;55.790;37.572;2023-04-05T13:05:12;100124.41;;;31.28;20.53
20228;BME280;12195;55.790;37.572;2023-04-05T13:07:44;100119.00;;;31.67;20.28
20228;BME280;12195;55.790;37.572;2023-04-05T13:10:19;100126.55;;;31.65;20.00
20228;BME280;12195;55.790;37.572;2023-04-05T13:12:51;100115.70;;;31.78;19.70
20228;BME280;12195;55.790;37.572;2023-04-05T13:15:23;100121.52;;;32.14;19.43
20228;BME280;12195;55.790;37.572;2023-04-05T13:17:57;100121.94;;;32.11;19.37
20228;BME280;12195;55.790;37.572;2023-04-05T13:20:29;100115.65;;;32.10;19.42
20228;BME280;12195;55.790;37.572;2023-04-05T13:23:01;100117.95;;;32.13;19.30
20228;BME280;12195;55.790;37.572;2023-04-05T13:25:33;100121.92;;;31.52;19.66
20228;BME280;12195;55.790;37.572;2023-04-05T13:28:06;100111.91;;;31.40;20.10
20228;BME280;12195;55.790;37.572;2023-04-05T13:30:38;100110.55;;;31.10;20.11
20228;BME280;12195;55.790;37.572;2023-04-05T13:33:10;100122.78;;;30.80;20.28
20228;BME280;12195;55.790;37.572;2023-04-05T13:35:43;100121.01;;;30.59;20.71
20228;BME280;12195;55.790;37.572;2023-04-05T13:38:16;100126.89;;;30.29;20.85
20228;BME280;12195;55.790;37.572;2023-04-05T13:40:47;100118.39;;;30.11;21.02
20228;BME280;12195;55.790;37.572;2023-04-05T13:43:19;100115.02;;;30.02;21.18
20228;BME280;12195;55.790;37.572;2023-04-05T13:45:52;100116.17;;;30.14;21.06
20228;BME280;12195;55.790;37.572;2023-04-05T13:48:24;100120.20;;;30.25;21.11
20228;BME280;12195;55.790;37.572;2023-04-05T13:50:56;100125.03;;;30.36;20.85